sensor_id;sensor_type;location;lat;lon;timestamp;temperature;humidity
7212;DHT22;3647;48.792;9.802;2024-01-11T05:46:02;-4.20;99.90
7212;DHT22;3647;48.792;9.802;2024-01-11T05:53:23;-4.50;99.90
7212;DHT22;3647;48.792;9.802;2024-01-11T06:03:13;-4.90;99.90
7212;DHT22;3647;48.792;9.802;2024-01-11T06:05:40;-5.00;99.90
7212;DHT22;3647;48.792;9.802;2024-01-11T06:08:07;-4.70;99.90
7212;DHT22;3647;48.792;9.802;2024-01-11T06:13:01;-4.80;99.90
7212;DHT22;3647;48.792;9.802;2024-01-11T06:17:55;-4.50;99.90
7212;DHT22;3647;48.792;9.802;2024-01-11T06:20:24;-4.60;99.90
7212;DHT22;3647;48.792;9.802;2024-01-11T10:10:36;-0.80;99.90
7212;DHT22;3647;48.792;9.802;2024-01-11T10:13:03;-0.50;99.90
7212;DHT22;3647;48.792;9.802;2024-01-11T10:15:29;-0.60;99.90
7212;DHT22;3647;48.792;9.802;2024-01-11T10:20:23;-0.60;99.90
7212;DHT22;3647;48.792;9.802;2024-01-11T10:22:51;-0.60;99.90
7212;DHT22;3647;48.792;9.802;2024-01-11T10:25:19;-0.50;99.90
7212;DHT22;3647;48.792;9.802;2024-01-11T10:27:47;-0.50;99.90
7212;DHT22;3647;48.792;9.802;2024-01-11T10:30:17;-0.30;99.90
7212;DHT22;3647;48.792;9.802;2024-01-11T10:32:45;2.30;99.90
7212;DHT22;3647;48.792;9.802;2024-01-11T10:35:12;2.30;99.90
7212;DHT22;3647;48.792;9.802;2024-01-11T10:37:39;0.10;99.90
7212;DHT22;3647;48.792;9.802;2024-01-11T10:40:08;0.10;99.90
7212;DHT22;3647;48.792;9.802;2024-01-11T10:42:37;0.20;99.90
7212;DHT22;3647;48.792;9.802;2024-01-11T10:45:10;0.90;99.90
7212;DHT22;3647;48.792;9.802;2024-01-11T10:47:37;0.20;99.90
7212;DHT22;3647;48.792;9.802;2024-01-11T10:50:07;0.80;99.90
7212;DHT22;3647;48.792;9.802;2024-01-11T10:52:43;0.40;99.90
7212;DHT22;3647;48.792;9.802;2024-01-11T10:55:12;0.60;99.90
7212;DHT22;3647;48.792;9.802;2024-01-11T10:57:39;0.70;99.90
7212;DHT22;3647;48.792;9.802;2024-01-11T11:00:09;0.80;99.90
7212;DHT22;3647;48.792;9.802;2024-01-11T11:02:39;0.80;99.90
7212;DHT22;3647;48.792;9.802;2024-01-11T11:05:07;0.80;99.90
7212;DHT22;3647;48.792;9.802;2024-01-11T11:07:35;0.90;99.90
7212;DHT22;3647;48.792;9.802;2024-01-11T11:10:04;1.50;99.90
7212;DHT22;3647;48.792;9.802;2024-01-11T11:12:32;1.10;99.90
7212;DHT22;3647;48.792;9.802;2024-01-11T11:15:01;1.10;99.90
7212;DHT22;3647;48.792;9.802;2024-01-11T11:17:30;1.10;99.90
7212;DHT22;3647;48.792;9.802;2024-01-11T11:19:57;1.30;99.90
7212;DHT22;3647;48.792;9.802;2024-01-11T11:22:26;1.30;99.90
7212;DHT22;3647;48.792;9.802;2024-01-11T11:25:03;1.40;99.90
7212;DHT22;3647;48.792;9.802;2024-01-11T11:27:31;1.40;99.90
7212;DHT22;3647;48.792;9.802;2024-01-11T11:29:58;4.00;99.90
7212;DHT22;3647;48.792;9.802;2024-01-11T11:32:36;3.60;99.90
7212;DHT22;3647;48.792;9.802;2024-01-11T11:35:05;3.10;99.90
7212;DHT22;3647;48.792;9.802;2024-01-11T11:37:33;1.10;99.90
7212;DHT22;3647;48.792;9.802;2024-01-11T11:40:00;1.10;99.90
7212;DHT22;3647;48.792;9.802;2024-01-11T11:42:27;1.20;99.90
7212;DHT22;3647;48.792;9.802;2024-01-11T11:44:56;1.20;99.90
7212;DHT22;3647;48.792;9.802;2024-01-11T11:47:24;1.30;99.90
7212;DHT22;3647;48.792;9.802;2024-01-11T11:50:05;1.30;99.90
7212;DHT22;3647;48.792;9.802;2024-01-11T11:52:33;1.40;99.90
7212;DHT22;3647;48.792;9.802;2024-01-11T11:55:01;1.50;99.90
7212;DHT22;3647;48.792;9.802;2024-01-11T11:57:28;1.40;99.90
7212;DHT22;3647;48.792;9.802;2024-01-11T11:59:56;2.50;99.90
7212;DHT22;3647;48.792;9.802;2024-01-11T12:02:25;1.50;99.90
7212;DHT22;3647;48.792;9.802;2024-01-11T12:04:52;1.70;99.90
7212;DHT22;3647;48.792;9.802;2024-01-11T12:07:21;1.70;99.90
7212;DHT22;3647;48.792;9.802;2024-01-11T12:09:48;1.80;99.90
7212;DHT22;3647;48.792;9.802;2024-01-11T12:12:16;1.70;99.90
7212;DHT22;3647;48.792;9.802;2024-01-11T12:14:46;1.80;99.90
7212;DHT22;3647;48.792;9.802;2024-01-11T12:17:14;2.00;99.90
7212;DHT22;3647;48.792;9.802;2024-01-11T12:19:41;2.00;99.90
7212;DHT22;3647;48.792;9.802;2024-01-11T12:22:08;4.10;99.90
7212;DHT22;3647;48.792;9.802;2024-01-11T12:24:36;2.00;99.90
7212;DHT22;3647;48.792;9.802;2024-01-11T12:27:04;2.00;99.90
7212;DHT22;3647;48.792;9.802;2024-01-11T12:29:31;2.10;99.90
7212;DHT22;3647;48.792;9.802;2024-01-11T12:31:58;2.90;99.90
7212;DHT22;3647;48.792;9.802;2024-01-11T12:34:25;2.00;99.90
7212;DHT22;3647;48.792;9.802;2024-01-11T12:36:53;2.00;99.90
7212;DHT22;3647;48.792;9.802;2024-01-11T12:39:20;4.30;99.90
7212;DHT22;3647;48.792;9.802;2024-01-11T12:41:53;2.00;99.90
7212;DHT22;3647;48.792;9.802;2024-01-11T12:44:23;2.20;99.90
7212;DHT22;3647;48.792;9.802;2024-01-11T12:46:51;2.00;99.90
7212;DHT22;3647;48.792;9.802;2024-01-11T12:49:18;4.40;99.90
7212;DHT22;3647;48.792;9.802;2024-01-11T12:51:45;4.30;99.90
7212;DHT22;3647;48.792;9.802;2024-01-11T12:54:12;2.10;99.90
7212;DHT22;3647;48.792;9.802;2024-01-11T12:56:43;2.10;99.90
7212;DHT22;3647;48.792;9.802;2024-01-11T12:59:12;2.50;99.90
7212;DHT22;3647;48.792;9.802;2024-01-11T13:01:42;2.10;99.90
7212;DHT22;3647;48.792;9.802;2024-01-11T13:04:09;2.80;99.90
7212;DHT22;3647;48.792;9.802;2024-01-11T13:06:37;2.20;99.90
7212;DHT22;3647;48.792;9.802;2024-01-11T13:09:04;2.20;99.90
7212;DHT22;3647;48.792;9.802;2024-01-11T13:11:33;2.30;99.90
7212;DHT22;3647;48.792;9.802;2024-01-11T13:14:00;2.30;99.90
7212;DHT22;3647;48.792;9.802;2024-01-11T13:16:33;3.20;99.90
7212;DHT22;3647;48.792;9.802;2024-01-11T13:19:00;3.80;99.90
7212;DHT22;3647;48.792;9.802;2024-01-11T13:21:27;2.30;99.90
7212;DHT22;3647;48.792;9.802;2024-01-11T13:23:54;5.10;99.90
7212;DHT22;3647;48.792;9.802;2024-01-11T13:26:20;2.30;99.90
7212;DHT22;3647;48.792;9.802;2024-01-11T13:28:47;2.30;99.90
7212;DHT22;3647;48.792;9.802;2024-01-11T13:31:14;2.20;99.90
7212;DHT22;3647;48.792;9.802;2024-01-11T13:33:43;2.10;99.90
7212;DHT22;3647;48.792;9.802;2024-01-11T13:36:10;2.00;99.90
7212;DHT22;3647;48.792;9.802;2024-01-11T13:38:37;2.10;99.90
7212;DHT22;3647;48.792;9.802;2024-01-11T13:41:04;2.10;99.90
7212;DHT22;3647;48.792;9.802;2024-01-11T13:43:33;2.00;99.90
7212;DHT22;3647;48.792;9.802;2024-01-11T13:46:01;2.00;99.90
7212;DHT22;3647;48.792;9.802;2024-01-11T13:48:30;1.90;99.90
7212;DHT22;3647;48.792;9.802;2024-01-11T13:50:59;1.90;99.90
7212;DHT22;3647;48.792;9.802;2024-01-11T13:53:28;2.00;99.90
7212;DHT22;3647;48.792;9.802;2024-01-11T13:55:55;2.50;99.90
7212;DHT22;3647;48.792;9.802;2024-01-11T13:58:22;3.60;99.90
7212;DHT22;3647;48.792;9.802;2024-01-11T14:00:49;2.10;99.90
7212;DHT22;3647;48.792;9.802;2024-01-11T14:03:16;2.20;99.90
7212;DHT22;3647;48.792;9.802;2024-01-11T14:05:43;2.20;99.90
7212;DHT22;3647;48.792;9.802;2024-01-11T14:08:11;2.10;99.90
7212;DHT22;3647;48.792;9.802;2024-01-11T14:10:38;2.00;99.90
7212;DHT22;3647;48.792;9.802;2024-01-11T14:13:05;4.70;99.90
7212;DHT22;3647;48.792;9.802;2024-01-11T14:15:34;1.90;99.90
7212;DHT22;3647;48.792;9.802;2024-01-11T14:18:02;1.90;99.90
7212;DHT22;3647;48.792;9.802;2024-01-11T14:20:30;1.90;99.90
7212;DHT22;3647;48.792;9.802;2024-01-11T14:22:59;1.90;99.90
7212;DHT22;3647;48.792;9.802;2024-01-11T14:25:27;1.70;99.90
7212;DHT22;3647;48.792;9.802;2024-01-11T14:27:54;1.70;99.90
7212;DHT22;3647;48.792;9.802;2024-01-11T14:30:22;3.70;99.90
7212;DHT22;3647;48.792;9.802;2024-01-11T14:32:49;1.70;99.90
7212;DHT22;3647;48.792;9.802;2024-01-11T14:35:15;1.60;99.90
7212;DHT22;3647;48.792;9.802;2024-01-11T14:37:43;1.60;99.90
7212;DHT22;3647;48.792;9.802;2024-01-11T14:40:11;1.60;99.90
7212;DHT22;3647;48.792;9.802;2024-01-11T14:42:39;1.70;99.90
7212;DHT22;3647;48.792;9.802;2024-01-11T14:45:07;1.70;99.90
7212;DHT22;3647;48.792;9.802;2024-01-11T14:47:34;1.60;99.90
7212;DHT22;3647;48.792;9.802;2024-01-11T14:50:01;1.60;99.90
7212;DHT22;3647;48.792;9.802;2024-01-11T14:52:29;1.40;99.90
7212;DHT22;3647;48.792;9.802;2024-01-11T14:54:57;1.40;99.90
7212;DHT22;3647;48.792;9.802;2024-01-11T14:57:24;1.40;99.90
7212;DHT22;3647;48.792;9.802;2024-01-11T14:59:51;3.50;99.90
7212;DHT22;3647;48.792;9.802;2024-01-11T15:02:18;1.20;99.90
7212;DHT22;3647;48.792;9.802;2024-01-11T15:04:45;1.70;99.90
7212;DHT22;3647;48.792;9.802;2024-01-11T15:07:12;1.10;99.90
7212;DHT22;3647;48.792;9.802;2024-01-11T15:09:40;1.30;99.90
7212;DHT22;3647;48.792;9.802;2024-01-11T15:12:07;1.10;99.90
7212;DHT22;3647;48.792;9.802;2024-01-11T15:14:34;1.10;99.90
7212;DHT22;3647;48.792;9.802;2024-01-11T15:17:03;1.10;99.90
7212;DHT22;3647;48.792;9.802;2024-01-11T15:19:30;1.00;99.90
7212;DHT22;3647;48.792;9.802;2024-01-11T15:21:57;1.00;99.90
7212;DHT22;3647;48.792;9.802;2024-01-11T15:24:23;2.10;99.90
7212;DHT22;3647;48.792;9.802;2024-01-11T15:26:50;0.90;99.90
7212;DHT22;3647;48.792;9.802;2024-01-11T15:29:17;0.80;99.90
7212;DHT22;3647;48.792;9.802;2024-01-11T15:31:44;0.80;99.90
7212;DHT22;3647;48.792;9.802;2024-01-11T15:34:13;0.80;99.90
7212;DHT22;3647;48.792;9.802;2024-01-11T15:36:40;0.60;99.90
7212;DHT22;3647;48.792;9.802;2024-01-11T15:39:07;0.60;99.90
7212;DHT22;3647;48.792;9.802;2024-01-11T15:41:34;0.50;99.90
7212;DHT22;3647;48.792;9.802;2024-01-11T15:44:01;0.50;99.90
7212;DHT22;3647;48.792;9.802;2024-01-11T15:46:29;0.50;99.90
7212;DHT22;3647;48.792;9.802;2024-01-11T15:48:56;0.40;99.90
7212;DHT22;3647;48.792;9.802;2024-01-11T15:51:24;0.40;99.90
7212;DHT22;3647;48.792;9.802;2024-01-11T15:53:51;0.30;99.90
7212;DHT22;3647;48.792;9.802;2024-01-11T15:56:18;0.20;99.90
7212;DHT22;3647;48.792;9.802;2024-01-11T15:58:45;0.10;99.90
7212;DHT22;3647;48.792;9.802;2024-01-11T16:01:12;0.10;99.90
7212;DHT22;3647;48.792;9.802;2024-01-11T16:03:39;0.00;99.90
7212;DHT22;3647;48.792;9.802;2024-01-11T16:06:06;-0.10;99.90
7212;DHT22;3647;48.792;9.802;2024-01-11T16:08:34;-1.70;99.90
7212;DHT22;3647;48.792;9.802;2024-01-11T16:11:01;-0.30;99.90
7212;DHT22;3647;48.792;9.802;2024-01-11T16:13:28;-0.40;99.90
7212;DHT22;3647;48.792;9.802;2024-01-11T16:15:55;-0.40;99.90
7212;DHT22;3647;48.792;9.802;2024-01-11T16:18:22;-0.50;99.90
7212;DHT22;3647;48.792;9.802;2024-01-11T16:20:49;-0.60;99.90
7212;DHT22;3647;48.792;9.802;2024-01-11T16:23:17;-0.40;99.90
7212;DHT22;3647;48.792;9.802;2024-01-11T16:25:45;0.60;99.90
7212;DHT22;3647;48.792;9.802;2024-01-11T16:28:12;-0.60;99.90
7212;DHT22;3647;48.792;9.802;2024-01-11T16:30:39;-0.70;99.90
7212;DHT22;3647;48.792;9.802;2024-01-11T16:33:06;-0.70;99.90
7212;DHT22;3647;48.792;9.802;2024-01-11T16:35:34;-0.70;99.90
7212;DHT22;3647;48.792;9.802;2024-01-11T16:38:00;-0.70;99.90
7212;DHT22;3647;48.792;9.802;2024-01-11T16:40:28;-0.70;99.90
7212;DHT22;3647;48.792;9.802;2024-01-11T16:42:56;-0.80;99.90
7212;DHT22;3647;48.792;9.802;2024-01-11T16:45:23;-0.80;99.90
7212;DHT22;3647;48.792;9.802;2024-01-11T16:47:50;-0.90;99.90
7212;DHT22;3647;48.792;9.802;2024-01-11T16:50:17;-0.90;99.90
7212;DHT22;3647;48.792;9.802;2024-01-11T16:52:45;-1.00;99.90
7212;DHT22;3647;48.792;9.802;2024-01-11T16:55:12;-1.00;99.90
7212;DHT22;3647;48.792;9.802;2024-01-11T16:57:38;-1.10;99.90
7212;DHT22;3647;48.792;9.802;2024-01-11T17:00:07;-1.10;99.90
7212;DHT22;3647;48.792;9.802;2024-01-11T17:02:34;-1.10;99.90
7212;DHT22;3647;48.792;9.802;2024-01-11T17:05:01;-1.20;99.90
7212;DHT22;3647;48.792;9.802;2024-01-11T17:07:28;-1.20;99.90
7212;DHT22;3647;48.792;9.802;2024-01-11T17:09:55;-1.20;99.90
7212;DHT22;3647;48.792;9.802;2024-01-11T17:12:22;1.00;99.90
7212;DHT22;3647;48.792;9.802;2024-01-11T17:14:49;-1.20;99.90
7212;DHT22;3647;48.792;9.802;2024-01-11T17:17:17;-1.30;99.90
7212;DHT22;3647;48.792;9.802;2024-01-11T17:19:44;-1.30;99.90
7212;DHT22;3647;48.792;9.802;2024-01-11T17:22:11;-1.30;99.90
7212;DHT22;3647;48.792;9.802;2024-01-11T17:24:38;-1.40;99.90
7212;DHT22;3647;48.792;9.802;2024-01-11T17:27:05;-1.40;99.90
7212;DHT22;3647;48.792;9.802;2024-01-11T17:29:35;-1.40;99.90
7212;DHT22;3647;48.792;9.802;2024-01-11T17:32:03;-1.40;99.90
7212;DHT22;3647;48.792;9.802;2024-01-11T17:34:31;-1.50;99.90
7212;DHT22;3647;48.792;9.802;2024-01-11T17:36:59;-1.50;99.90
7212;DHT22;3647;48.792;9.802;2024-01-11T17:39:26;-0.40;99.90
7212;DHT22;3647;48.792;9.802;2024-01-11T17:41:54;-1.60;99.90
7212;DHT22;3647;48.792;9.802;2024-01-11T17:44:25;-1.90;99.90
7212;DHT22;3647;48.792;9.802;2024-01-11T17:46:52;-1.70;99.90
7212;DHT22;3647;48.792;9.802;2024-01-11T17:49:18;-1.70;99.90
7212;DHT22;3647;48.792;9.802;2024-01-11T17:51:47;-1.70;99.90
7212;DHT22;3647;48.792;9.802;2024-01-11T17:54:13;-1.80;99.90
7212;DHT22;3647;48.792;9.802;2024-01-11T17:56:41;-1.80;99.90
7212;DHT22;3647;48.792;9.802;2024-01-11T17:59:08;-1.80;99.90
7212;DHT22;3647;48.792;9.802;2024-01-11T18:01:35;-1.70;99.90
7212;DHT22;3647;48.792;9.802;2024-01-11T18:04:05;-1.80;99.90
7212;DHT22;3647;48.792;9.802;2024-01-11T18:09:01;-1.70;99.90
7212;DHT22;3647;48.792;9.802;2024-01-11T18:11:29;-1.80;99.90
7212;DHT22;3647;48.792;9.802;2024-01-11T18:13:57;-1.80;99.90
7212;DHT22;3647;48.792;9.802;2024-01-11T18:16:24;-1.80;99.90
7212;DHT22;3647;48.792;9.802;2024-01-11T18:18:52;-0.70;99.90
7212;DHT22;3647;48.792;9.802;2024-01-11T18:21:19;0.40;99.90
7212;DHT22;3647;48.792;9.802;2024-01-11T18:23:46;-1.90;99.90
7212;DHT22;3647;48.792;9.802;2024-01-11T18:26:14;-1.90;99.90
7212;DHT22;3647;48.792;9.802;2024-01-11T18:28:42;-2.00;99.90
7212;DHT22;3647;48.792;9.802;2024-01-11T18:31:13;-2.00;99.90
7212;DHT22;3647;48.792;9.802;2024-01-11T18:33:40;-1.80;99.90
7212;DHT22;3647;48.792;9.802;2024-01-11T18:36:08;-1.90;99.90
7212;DHT22;3647;48.792;9.802;2024-01-11T18:38:35;-1.80;99.90
7212;DHT22;3647;48.792;9.802;2024-01-11T18:41:03;-2.20;99.90
7212;DHT22;3647;48.792;9.802;2024-01-11T18:43:31;-2.10;99.90
7212;DHT22;3647;48.792;9.802;2024-01-11T18:45:58;-2.10;99.90
7212;DHT22;3647;48.792;9.802;2024-01-11T18:53:20;-2.10;99.90
7212;DHT22;3647;48.792;9.802;2024-01-11T18:55:47;-2.10;99.90
7212;DHT22;3647;48.792;9.802;2024-01-11T18:58:15;-2.20;99.90
7212;DHT22;3647;48.792;9.802;2024-01-11T19:00:44;-2.20;99.90
7212;DHT22;3647;48.792;9.802;2024-01-11T19:03:11;-2.20;99.90
7212;DHT22;3647;48.792;9.802;2024-01-11T19:05:40;-2.20;99.90
7212;DHT22;3647;48.792;9.802;2024-01-11T19:08:07;-2.40;99.90
7212;DHT22;3647;48.792;9.802;2024-01-11T19:10:34;-2.60;99.90
7212;DHT22;3647;48.792;9.802;2024-01-11T19:13:01;-2.50;99.90
7212;DHT22;3647;48.792;9.802;2024-01-11T19:17:56;-2.40;99.90
7212;DHT22;3647;48.792;9.802;2024-01-11T19:20:23;-2.30;99.90
7212;DHT22;3647;48.792;9.802;2024-01-11T19:22:51;-2.50;99.90
7212;DHT22;3647;48.792;9.802;2024-01-11T19:25:17;-2.50;99.90
7212;DHT22;3647;48.792;9.802;2024-01-11T19:30:12;-2.60;99.90
7212;DHT22;3647;48.792;9.802;2024-01-11T19:35:08;-2.60;99.90
7212;DHT22;3647;48.792;9.802;2024-01-11T19:37:35;-2.50;99.90
7212;DHT22;3647;48.792;9.802;2024-01-11T19:40:03;-2.50;99.90
7212;DHT22;3647;48.792;9.802;2024-01-11T19:44:57;-2.50;99.90
7212;DHT22;3647;48.792;9.802;2024-01-11T19:49:51;-2.70;99.90
7212;DHT22;3647;48.792;9.802;2024-01-11T19:52:19;-2.60;99.90
7212;DHT22;3647;48.792;9.802;2024-01-11T19:57:13;-2.70;99.90
7212;DHT22;3647;48.792;9.802;2024-01-11T20:04:36;-2.80;99.90
7212;DHT22;3647;48.792;9.802;2024-01-11T20:07:03;-2.70;99.90
7212;DHT22;3647;48.792;9.802;2024-01-11T20:09:32;-2.70;99.90
7212;DHT22;3647;48.792;9.802;2024-01-11T20:11:59;-2.70;99.90
7212;DHT22;3647;48.792;9.802;2024-01-11T20:14:26;-2.70;99.90
7212;DHT22;3647;48.792;9.802;2024-01-11T20:19:20;-2.80;99.90
7212;DHT22;3647;48.792;9.802;2024-01-11T20:26:43;-2.70;99.90
7212;DHT22;3647;48.792;9.802;2024-01-11T20:29:10;-2.70;99.90
7212;DHT22;3647;48.792;9.802;2024-01-11T20:31:37;-2.80;99.90
7212;DHT22;3647;48.792;9.802;2024-01-11T20:36:34;-2.90;99.90
7212;DHT22;3647;48.792;9.802;2024-01-11T20:39:01;-3.00;99.90
7212;DHT22;3647;48.792;9.802;2024-01-11T20:43:57;-3.00;99.90
7212;DHT22;3647;48.792;9.802;2024-01-11T20:46:24;-3.00;99.90
7212;DHT22;3647;48.792;9.802;2024-01-11T20:48:50;-3.00;99.90
7212;DHT22;3647;48.792;9.802;2024-01-11T20:51:17;-3.00;99.90
7212;DHT22;3647;48.792;9.802;2024-01-11T20:56:13;-3.10;99.90
7212;DHT22;3647;48.792;9.802;2024-01-11T20:58:42;-3.10;99.90
7212;DHT22;3647;48.792;9.802;2024-01-11T21:01:10;-3.10;99.90
7212;DHT22;3647;48.792;9.802;2024-01-11T21:03:37;-3.20;99.90
7212;DHT22;3647;48.792;9.802;2024-01-11T21:06:05;-3.20;99.90
7212;DHT22;3647;48.792;9.802;2024-01-11T21:08:31;-3.30;99.90
7212;DHT22;3647;48.792;9.802;2024-01-11T21:10:59;-3.20;99.90
7212;DHT22;3647;48.792;9.802;2024-01-11T21:13:26;-1.30;99.90
7212;DHT22;3647;48.792;9.802;2024-01-11T21:15:53;-3.00;99.90
7212;DHT22;3647;48.792;9.802;2024-01-11T21:18:21;-3.20;99.90
7212;DHT22;3647;48.792;9.802;2024-01-11T21:20:48;-3.20;99.90
7212;DHT22;3647;48.792;9.802;2024-01-11T21:23:15;-3.10;99.90
7212;DHT22;3647;48.792;9.802;2024-01-11T21:25:42;-3.10;99.90
7212;DHT22;3647;48.792;9.802;2024-01-11T21:28:09;-3.10;99.90
7212;DHT22;3647;48.792;9.802;2024-01-11T21:30:39;-3.10;99.90
7212;DHT22;3647;48.792;9.802;2024-01-11T21:33:06;-2.10;99.90
7212;DHT22;3647;48.792;9.802;2024-01-11T21:35:34;-3.00;99.90
7212;DHT22;3647;48.792;9.802;2024-01-11T21:38:01;-3.10;99.90
7212;DHT22;3647;48.792;9.802;2024-01-11T21:40:28;-3.10;99.90
7212;DHT22;3647;48.792;9.802;2024-01-11T21:42:56;-3.10;99.90
7212;DHT22;3647;48.792;9.802;2024-01-11T21:45:23;-3.10;99.90
7212;DHT22;3647;48.792;9.802;2024-01-11T21:47:50;-3.50;99.90
7212;DHT22;3647;48.792;9.802;2024-01-11T21:50:17;-3.10;99.90
7212;DHT22;3647;48.792;9.802;2024-01-11T21:52:45;-3.20;99.90
7212;DHT22;3647;48.792;9.802;2024-01-11T21:55:12;-3.40;99.90
7212;DHT22;3647;48.792;9.802;2024-01-11T21:57:39;-2.70;99.90
7212;DHT22;3647;48.792;9.802;2024-01-11T22:00:07;-3.40;99.90
7212;DHT22;3647;48.792;9.802;2024-01-11T22:02:34;-3.40;99.90
7212;DHT22;3647;48.792;9.802;2024-01-11T22:05:01;-3.40;99.90
7212;DHT22;3647;48.792;9.802;2024-01-11T22:07:28;-4.80;99.90
7212;DHT22;3647;48.792;9.802;2024-01-11T22:09:57;-3.30;99.90
7212;DHT22;3647;48.792;9.802;2024-01-11T22:12:23;-2.50;99.90
7212;DHT22;3647;48.792;9.802;2024-01-11T22:14:50;-2.90;99.90
7212;DHT22;3647;48.792;9.802;2024-01-11T22:17:17;-3.30;99.90
7212;DHT22;3647;48.792;9.802;2024-01-11T22:19:44;-2.50;99.90
7212;DHT22;3647;48.792;9.802;2024-01-11T22:24:39;-3.40;99.90
7212;DHT22;3647;48.792;9.802;2024-01-11T22:27:07;-3.50;99.90
